sensor_id;sensor_type;location;lat;lon;timestamp;P1;durP1;ratioP1;P2;durP2;ratioP2
38117;SDS011;23928;47.562;7.508;2022-07-04T00:00:27;3.53;;;1.40;;
38117;SDS011;23928;47.562;7.508;2022-07-04T00:02:52;7.90;;;1.60;;
38117;SDS011;23928;47.562;7.508;2022-07-04T00:05:18;2.63;;;1.43;;
38117;SDS011;23928;47.562;7.508;2022-07-04T00:07:45;3.23;;;1.70;;
38117;SDS011;23928;47.562;7.508;2022-07-04T00:10:13;2.27;;;1.50;;
38117;SDS011;23928;47.562;7.508;2022-07-04T00:12:40;2.13;;;1.30;;
38117;SDS011;23928;47.562;7.508;2022-07-04T00:15:06;2.63;;;1.70;;
38117;SDS011;23928;47.562;7.508;2022-07-04T00:17:33;2.13;;;1.60;;
38117;SDS011;23928;47.562;7.508;2022-07-04T00:19:59;1.87;;;1.40;;
38117;SDS011;23928;47.562;7.508;2022-07-04T00:22:25;3.13;;;1.47;;
38117;SDS011;23928;47.562;7.508;2022-07-04T00:24:50;3.63;;;1.50;;
38117;SDS011;23928;47.562;7.508;2022-07-04T00:27:16;1.40;;;1.30;;
38117;SDS011;23928;47.562;7.508;2022-07-04T00:29:41;1.37;;;1.27;;
38117;SDS011;23928;47.562;7.508;2022-07-04T00:32:07;3.10;;;1.50;;
38117;SDS011;23928;47.562;7.508;2022-07-04T00:34:33;2.33;;;1.63;;
38117;SDS011;23928;47.562;7.508;2022-07-04T00:36:59;1.53;;;1.43;;
38117;SDS011;23928;47.562;7.508;2022-07-04T00:39:24;4.70;;;1.60;;
38117;SDS011;23928;47.562;7.508;2022-07-04T00:41:50;4.07;;;1.77;;
38117;SDS011;23928;47.562;7.508;2022-07-04T00:44:16;3.13;;;1.93;;
38117;SDS011;23928;47.562;7.508;2022-07-04T00:46:42;4.50;;;1.67;;
38117;SDS011;23928;47.562;7.508;2022-07-04T00:49:09;3.33;;;1.90;;
38117;SDS011;23928;47.562;7.508;2022-07-04T00:51:36;5.30;;;2.20;;
38117;SDS011;23928;47.562;7.508;2022-07-04T00:54:04;2.47;;;1.60;;
38117;SDS011;23928;47.562;7.508;2022-07-04T00:56:31;2.13;;;1.40;;
38117;SDS011;23928;47.562;7.508;2022-07-04T00:58:57;4.87;;;2.40;;
38117;SDS011;23928;47.562;7.508;2022-07-04T01:01:24;6.07;;;2.47;;
38117;SDS011;23928;47.562;7.508;2022-07-04T01:03:50;8.70;;;2.50;;
38117;SDS011;23928;47.562;7.508;2022-07-04T01:06:16;3.67;;;1.90;;
38117;SDS011;23928;47.562;7.508;2022-07-04T01:08:44;3.03;;;1.97;;
38117;SDS011;23928;47.562;7.508;2022-07-04T01:11:10;4.67;;;2.30;;
38117;SDS011;23928;47.562;7.508;2022-07-04T01:13:36;4.23;;;2.20;;
38117;SDS011;23928;47.562;7.508;2022-07-04T01:16:02;5.17;;;2.43;;
38117;SDS011;23928;47.562;7.508;2022-07-04T01:18:29;5.43;;;2.50;;
38117;SDS011;23928;47.562;7.508;2022-07-04T01:20:55;5.70;;;2.37;;
38117;SDS011;23928;47.562;7.508;2022-07-04T01:23:21;5.30;;;2.37;;
38117;SDS011;23928;47.562;7.508;2022-07-04T01:25:47;4.30;;;2.30;;
38117;SDS011;23928;47.562;7.508;2022-07-04T01:28:15;4.67;;;2.50;;
38117;SDS011;23928;47.562;7.508;2022-07-04T01:30:41;4.70;;;2.10;;
38117;SDS011;23928;47.562;7.508;2022-07-04T01:33:07;2.60;;;1.97;;
38117;SDS011;23928;47.562;7.508;2022-07-04T01:35:32;3.27;;;2.43;;
38117;SDS011;23928;47.562;7.508;2022-07-04T01:37:58;4.40;;;2.10;;
38117;SDS011;23928;47.562;7.508;2022-07-04T01:40:24;2.80;;;1.90;;
38117;SDS011;23928;47.562;7.508;2022-07-04T01:42:49;3.47;;;1.83;;
38117;SDS011;23928;47.562;7.508;2022-07-04T01:45:15;4.80;;;1.90;;
38117;SDS011;23928;47.562;7.508;2022-07-04T01:47:41;2.30;;;2.10;;
38117;SDS011;23928;47.562;7.508;2022-07-04T01:50:07;6.40;;;2.30;;
38117;SDS011;23928;47.562;7.508;2022-07-04T01:52:37;5.63;;;2.10;;
38117;SDS011;23928;47.562;7.508;2022-07-04T01:55:03;3.80;;;2.07;;
38117;SDS011;23928;47.562;7.508;2022-07-04T01:57:29;5.07;;;2.30;;
38117;SDS011;23928;47.562;7.508;2022-07-04T01:59:55;4.63;;;2.30;;
38117;SDS011;23928;47.562;7.508;2022-07-04T02:02:39;3.53;;;2.03;;
38117;SDS011;23928;47.562;7.508;2022-07-04T02:05:05;3.43;;;2.10;;
38117;SDS011;23928;47.562;7.508;2022-07-04T02:07:31;3.07;;;2.00;;
38117;SDS011;23928;47.562;7.508;2022-07-04T02:09:56;4.40;;;2.17;;
38117;SDS011;23928;47.562;7.508;2022-07-04T02:12:22;4.17;;;1.60;;
38117;SDS011;23928;47.562;7.508;2022-07-04T02:15:06;5.83;;;2.10;;
38117;SDS011;23928;47.562;7.508;2022-07-04T02:17:32;4.33;;;1.80;;
38117;SDS011;23928;47.562;7.508;2022-07-04T02:19:59;4.93;;;2.10;;
38117;SDS011;23928;47.562;7.508;2022-07-04T02:22:24;5.30;;;1.97;;
38117;SDS011;23928;47.562;7.508;2022-07-04T02:24:50;3.77;;;1.70;;
38117;SDS011;23928;47.562;7.508;2022-07-04T02:27:16;1.70;;;1.53;;
38117;SDS011;23928;47.562;7.508;2022-07-04T02:29:41;3.17;;;2.03;;
38117;SDS011;23928;47.562;7.508;2022-07-04T02:32:08;2.57;;;1.60;;
38117;SDS011;23928;47.562;7.508;2022-07-04T02:34:34;2.20;;;2.00;;
38117;SDS011;23928;47.562;7.508;2022-07-04T02:36:59;2.87;;;2.10;;
38117;SDS011;23928;47.562;7.508;2022-07-04T02:39:25;4.80;;;2.10;;
38117;SDS011;23928;47.562;7.508;2022-07-04T02:41:50;2.17;;;1.93;;
38117;SDS011;23928;47.562;7.508;2022-07-04T02:44:16;2.27;;;2.07;;
38117;SDS011;23928;47.562;7.508;2022-07-04T02:46:42;3.13;;;1.90;;
38117;SDS011;23928;47.562;7.508;2022-07-04T02:49:07;4.90;;;1.83;;
38117;SDS011;23928;47.562;7.508;2022-07-04T02:51:33;3.10;;;1.63;;
38117;SDS011;23928;47.562;7.508;2022-07-04T02:53:59;5.17;;;2.13;;
38117;SDS011;23928;47.562;7.508;2022-07-04T02:56:25;5.00;;;2.13;;
38117;SDS011;23928;47.562;7.508;2022-07-04T02:58:51;3.23;;;1.87;;
38117;SDS011;23928;47.562;7.508;2022-07-04T03:01:17;2.50;;;1.67;;
38117;SDS011;23928;47.562;7.508;2022-07-04T03:03:44;3.43;;;2.10;;
38117;SDS011;23928;47.562;7.508;2022-07-04T03:06:10;4.30;;;1.80;;
38117;SDS011;23928;47.562;7.508;2022-07-04T03:08:36;2.10;;;1.43;;
38117;SDS011;23928;47.562;7.508;2022-07-04T03:11:03;3.17;;;1.73;;
38117;SDS011;23928;47.562;7.508;2022-07-04T03:13:29;4.70;;;2.03;;
38117;SDS011;23928;47.562;7.508;2022-07-04T03:15:54;2.53;;;1.80;;
38117;SDS011;23928;47.562;7.508;2022-07-04T03:18:20;2.97;;;1.67;;
38117;SDS011;23928;47.562;7.508;2022-07-04T03:20:46;3.13;;;1.73;;
38117;SDS011;23928;47.562;7.508;2022-07-04T03:23:11;1.80;;;1.57;;
38117;SDS011;23928;47.562;7.508;2022-07-04T03:25:38;1.83;;;1.70;;
38117;SDS011;23928;47.562;7.508;2022-07-04T03:28:05;3.33;;;1.80;;
38117;SDS011;23928;47.562;7.508;2022-07-04T03:30:30;3.70;;;1.90;;
38117;SDS011;23928;47.562;7.508;2022-07-04T03:32:56;3.83;;;1.93;;
38117;SDS011;23928;47.562;7.508;2022-07-04T03:35:22;1.93;;;1.67;;
38117;SDS011;23928;47.562;7.508;2022-07-04T03:37:47;2.37;;;1.73;;
38117;SDS011;23928;47.562;7.508;2022-07-04T03:40:13;1.70;;;1.60;;
38117;SDS011;23928;47.562;7.508;2022-07-04T03:42:39;2.50;;;1.80;;
38117;SDS011;23928;47.562;7.508;2022-07-04T03:45:05;2.33;;;1.90;;
38117;SDS011;23928;47.562;7.508;2022-07-04T03:47:31;3.20;;;1.70;;
38117;SDS011;23928;47.562;7.508;2022-07-04T03:49:57;2.77;;;1.67;;
38117;SDS011;23928;47.562;7.508;2022-07-04T03:52:23;5.70;;;2.03;;
38117;SDS011;23928;47.562;7.508;2022-07-04T03:54:49;4.10;;;1.90;;
38117;SDS011;23928;47.562;7.508;2022-07-04T03:57:15;1.60;;;1.50;;
38117;SDS011;23928;47.562;7.508;2022-07-04T03:59:40;3.00;;;1.70;;
38117;SDS011;23928;47.562;7.508;2022-07-04T04:02:06;4.57;;;1.73;;
38117;SDS011;23928;47.562;7.508;2022-07-04T04:04:31;4.27;;;2.00;;
38117;SDS011;23928;47.562;7.508;2022-07-04T04:07:16;3.07;;;1.70;;
38117;SDS011;23928;47.562;7.508;2022-07-04T04:09:41;2.67;;;1.87;;
38117;SDS011;23928;47.562;7.508;2022-07-04T04:12:07;2.70;;;1.77;;
38117;SDS011;23928;47.562;7.508;2022-07-04T04:14:33;2.93;;;1.60;;
38117;SDS011;23928;47.562;7.508;2022-07-04T04:16:58;5.83;;;2.23;;
38117;SDS011;23928;47.562;7.508;2022-07-04T04:19:24;6.80;;;1.80;;
38117;SDS011;23928;47.562;7.508;2022-07-04T04:21:50;2.70;;;1.70;;
38117;SDS011;23928;47.562;7.508;2022-07-04T04:24:15;5.73;;;1.97;;
38117;SDS011;23928;47.562;7.508;2022-07-04T04:26:41;3.33;;;1.80;;
38117;SDS011;23928;47.562;7.508;2022-07-04T04:29:06;3.60;;;1.83;;
38117;SDS011;23928;47.562;7.508;2022-07-04T04:31:32;3.63;;;2.10;;
38117;SDS011;23928;47.562;7.508;2022-07-04T04:33:58;4.13;;;2.27;;
38117;SDS011;23928;47.562;7.508;2022-07-04T04:36:24;2.77;;;1.80;;
38117;SDS011;23928;47.562;7.508;2022-07-04T04:38:50;3.43;;;1.83;;
38117;SDS011;23928;47.562;7.508;2022-07-04T04:41:15;2.10;;;1.60;;
38117;SDS011;23928;47.562;7.508;2022-07-04T04:43:41;2.47;;;1.77;;
38117;SDS011;23928;47.562;7.508;2022-07-04T04:46:07;2.20;;;1.67;;
38117;SDS011;23928;47.562;7.508;2022-07-04T04:48:33;1.87;;;1.70;;
38117;SDS011;23928;47.562;7.508;2022-07-04T04:50:58;4.70;;;1.80;;
38117;SDS011;23928;47.562;7.508;2022-07-04T04:53:24;1.97;;;1.73;;
38117;SDS011;23928;47.562;7.508;2022-07-04T04:55:53;2.80;;;1.70;;
38117;SDS011;23928;47.562;7.508;2022-07-04T04:58:20;2.67;;;1.70;;
38117;SDS011;23928;47.562;7.508;2022-07-04T05:00:46;4.27;;;1.73;;
38117;SDS011;23928;47.562;7.508;2022-07-04T05:03:14;2.77;;;1.73;;
38117;SDS011;23928;47.562;7.508;2022-07-04T05:05:40;1.97;;;1.70;;
38117;SDS011;23928;47.562;7.508;2022-07-04T05:08:05;1.83;;;1.63;;
38117;SDS011;23928;47.562;7.508;2022-07-04T05:10:31;3.70;;;2.00;;
38117;SDS011;23928;47.562;7.508;2022-07-04T05:12:56;3.47;;;2.00;;
38117;SDS011;23928;47.562;7.508;2022-07-04T05:15:22;9.27;;;3.27;;
38117;SDS011;23928;47.562;7.508;2022-07-04T05:17:48;4.33;;;2.00;;
38117;SDS011;23928;47.562;7.508;2022-07-04T05:20:13;4.07;;;2.30;;
38117;SDS011;23928;47.562;7.508;2022-07-04T05:22:39;2.47;;;2.03;;
38117;SDS011;23928;47.562;7.508;2022-07-04T05:25:05;2.20;;;1.97;;
38117;SDS011;23928;47.562;7.508;2022-07-04T05:27:30;5.23;;;1.77;;
38117;SDS011;23928;47.562;7.508;2022-07-04T05:29:57;3.67;;;2.00;;
38117;SDS011;23928;47.562;7.508;2022-07-04T05:32:23;3.37;;;2.00;;
38117;SDS011;23928;47.562;7.508;2022-07-04T05:34:50;3.10;;;1.90;;
38117;SDS011;23928;47.562;7.508;2022-07-04T05:37:15;4.17;;;2.00;;
38117;SDS011;23928;47.562;7.508;2022-07-04T05:39:41;3.37;;;1.97;;
38117;SDS011;23928;47.562;7.508;2022-07-04T05:42:07;2.30;;;2.00;;
38117;SDS011;23928;47.562;7.508;2022-07-04T05:44:32;2.70;;;1.80;;
38117;SDS011;23928;47.562;7.508;2022-07-04T05:46:58;4.53;;;2.13;;
38117;SDS011;23928;47.562;7.508;2022-07-04T05:49:23;1.67;;;1.57;;
38117;SDS011;23928;47.562;7.508;2022-07-04T05:51:49;3.73;;;1.63;;
38117;SDS011;23928;47.562;7.508;2022-07-04T05:54:15;2.80;;;1.80;;
38117;SDS011;23928;47.562;7.508;2022-07-04T05:56:40;3.93;;;2.10;;
38117;SDS011;23928;47.562;7.508;2022-07-04T05:59:07;4.47;;;1.83;;
38117;SDS011;23928;47.562;7.508;2022-07-04T06:01:34;3.93;;;2.30;;
38117;SDS011;23928;47.562;7.508;2022-07-04T06:04:00;5.20;;;1.90;;
38117;SDS011;23928;47.562;7.508;2022-07-04T06:06:25;4.27;;;2.10;;
38117;SDS011;23928;47.562;7.508;2022-07-04T06:08:51;3.20;;;2.00;;
38117;SDS011;23928;47.562;7.508;2022-07-04T06:11:17;2.67;;;1.93;;
38117;SDS011;23928;47.562;7.508;2022-07-04T06:13:43;2.50;;;1.80;;
38117;SDS011;23928;47.562;7.508;2022-07-04T06:16:08;1.80;;;1.70;;
38117;SDS011;23928;47.562;7.508;2022-07-04T06:18:34;3.27;;;1.90;;
38117;SDS011;23928;47.562;7.508;2022-07-04T06:21:00;1.70;;;1.60;;
38117;SDS011;23928;47.562;7.508;2022-07-04T06:23:25;5.47;;;1.90;;
38117;SDS011;23928;47.562;7.508;2022-07-04T06:25:51;2.77;;;1.87;;
38117;SDS011;23928;47.562;7.508;2022-07-04T06:28:16;2.87;;;1.60;;
38117;SDS011;23928;47.562;7.508;2022-07-04T06:30:42;3.53;;;2.10;;
38117;SDS011;23928;47.562;7.508;2022-07-04T06:33:08;3.83;;;1.90;;
38117;SDS011;23928;47.562;7.508;2022-07-04T06:35:33;2.23;;;1.63;;
38117;SDS011;23928;47.562;7.508;2022-07-04T06:38:21;4.83;;;1.60;;
38117;SDS011;23928;47.562;7.508;2022-07-04T06:40:53;1.93;;;1.70;;
38117;SDS011;23928;47.562;7.508;2022-07-04T06:43:20;4.70;;;1.90;;
38117;SDS011;23928;47.562;7.508;2022-07-04T06:45:46;3.37;;;1.77;;
38117;SDS011;23928;47.562;7.508;2022-07-04T06:48:11;6.07;;;2.07;;
38117;SDS011;23928;47.562;7.508;2022-07-04T06:50:37;3.57;;;1.70;;
38117;SDS011;23928;47.562;7.508;2022-07-04T06:53:03;3.03;;;1.90;;
38117;SDS011;23928;47.562;7.508;2022-07-04T06:55:30;1.77;;;1.67;;
38117;SDS011;23928;47.562;7.508;2022-07-04T06:57:56;3.83;;;1.90;;
38117;SDS011;23928;47.562;7.508;2022-07-04T07:00:22;2.03;;;1.87;;
38117;SDS011;23928;47.562;7.508;2022-07-04T07:02:48;4.40;;;2.40;;
38117;SDS011;23928;47.562;7.508;2022-07-04T07:05:14;2.30;;;1.90;;
38117;SDS011;23928;47.562;7.508;2022-07-04T07:07:39;3.53;;;2.23;;
38117;SDS011;23928;47.562;7.508;2022-07-04T07:10:05;3.50;;;1.80;;
38117;SDS011;23928;47.562;7.508;2022-07-04T07:12:31;2.13;;;1.93;;
38117;SDS011;23928;47.562;7.508;2022-07-04T07:14:58;4.10;;;1.97;;
38117;SDS011;23928;47.562;7.508;2022-07-04T07:17:24;4.50;;;2.13;;
38117;SDS011;23928;47.562;7.508;2022-07-04T07:19:50;3.63;;;1.80;;
38117;SDS011;23928;47.562;7.508;2022-07-04T07:22:16;2.33;;;2.00;;
38117;SDS011;23928;47.562;7.508;2022-07-04T07:24:41;3.47;;;1.83;;
38117;SDS011;23928;47.562;7.508;2022-07-04T07:27:07;5.17;;;2.20;;
38117;SDS011;23928;47.562;7.508;2022-07-04T07:29:34;1.97;;;1.77;;
38117;SDS011;23928;47.562;7.508;2022-07-04T07:31:59;3.23;;;2.27;;
38117;SDS011;23928;47.562;7.508;2022-07-04T07:34:25;3.77;;;2.03;;
38117;SDS011;23928;47.562;7.508;2022-07-04T07:36:51;3.63;;;2.03;;
38117;SDS011;23928;47.562;7.508;2022-07-04T07:39:17;3.97;;;2.10;;
38117;SDS011;23928;47.562;7.508;2022-07-04T07:41:43;3.63;;;1.63;;
38117;SDS011;23928;47.562;7.508;2022-07-04T07:44:08;5.47;;;1.83;;
38117;SDS011;23928;47.562;7.508;2022-07-04T07:46:34;2.93;;;2.07;;
38117;SDS011;23928;47.562;7.508;2022-07-04T07:49:00;3.30;;;1.60;;
38117;SDS011;23928;47.562;7.508;2022-07-04T07:51:26;2.87;;;2.20;;
38117;SDS011;23928;47.562;7.508;2022-07-04T07:53:51;6.17;;;2.13;;
38117;SDS011;23928;47.562;7.508;2022-07-04T07:56:17;3.80;;;2.20;;
38117;SDS011;23928;47.562;7.508;2022-07-04T07:58:43;3.07;;;2.07;;
38117;SDS011;23928;47.562;7.508;2022-07-04T08:01:08;2.10;;;1.90;;
38117;SDS011;23928;47.562;7.508;2022-07-04T08:03:34;4.30;;;2.30;;
38117;SDS011;23928;47.562;7.508;2022-07-04T08:06:18;3.07;;;2.53;;
38117;SDS011;23928;47.562;7.508;2022-07-04T08:08:44;6.17;;;2.63;;
38117;SDS011;23928;47.562;7.508;2022-07-04T08:11:10;2.57;;;2.30;;
38117;SDS011;23928;47.562;7.508;2022-07-04T08:13:37;3.93;;;2.30;;
38117;SDS011;23928;47.562;7.508;2022-07-04T08:16:03;4.83;;;2.87;;
38117;SDS011;23928;47.562;7.508;2022-07-04T08:18:30;4.07;;;2.97;;
38117;SDS011;23928;47.562;7.508;2022-07-04T08:20:56;3.13;;;2.50;;
38117;SDS011;23928;47.562;7.508;2022-07-04T08:23:21;3.13;;;2.30;;
38117;SDS011;23928;47.562;7.508;2022-07-04T08:25:47;3.33;;;2.80;;
38117;SDS011;23928;47.562;7.508;2022-07-04T08:28:12;4.17;;;2.90;;
38117;SDS011;23928;47.562;7.508;2022-07-04T08:30:38;6.37;;;2.43;;
38117;SDS011;23928;47.562;7.508;2022-07-04T08:33:03;5.50;;;2.37;;
38117;SDS011;23928;47.562;7.508;2022-07-04T08:35:29;3.70;;;2.40;;
38117;SDS011;23928;47.562;7.508;2022-07-04T08:37:55;2.97;;;2.40;;
38117;SDS011;23928;47.562;7.508;2022-07-04T08:40:21;4.17;;;2.20;;
38117;SDS011;23928;47.562;7.508;2022-07-04T08:42:48;2.50;;;2.30;;
38117;SDS011;23928;47.562;7.508;2022-07-04T08:45:15;4.53;;;2.47;;
38117;SDS011;23928;47.562;7.508;2022-07-04T08:47:42;2.87;;;2.20;;
38117;SDS011;23928;47.562;7.508;2022-07-04T08:52:51;3.73;;;2.20;;
38117;SDS011;23928;47.562;7.508;2022-07-04T08:55:19;4.23;;;2.73;;
38117;SDS011;23928;47.562;7.508;2022-07-04T08:58:03;7.23;;;2.47;;
38117;SDS011;23928;47.562;7.508;2022-07-04T09:00:48;4.20;;;2.50;;
38117;SDS011;23928;47.562;7.508;2022-07-04T09:03:15;3.23;;;2.40;;
38117;SDS011;23928;47.562;7.508;2022-07-04T09:05:44;4.93;;;2.43;;
38117;SDS011;23928;47.562;7.508;2022-07-04T09:08:10;5.60;;;2.20;;
38117;SDS011;23928;47.562;7.508;2022-07-04T09:10:36;5.63;;;2.57;;
38117;SDS011;23928;47.562;7.508;2022-07-04T09:13:02;5.20;;;2.60;;
38117;SDS011;23928;47.562;7.508;2022-07-04T09:15:32;3.53;;;2.20;;
38117;SDS011;23928;47.562;7.508;2022-07-04T09:18:02;3.60;;;2.60;;
38117;SDS011;23928;47.562;7.508;2022-07-04T09:20:29;2.73;;;2.47;;
38117;SDS011;23928;47.562;7.508;2022-07-04T09:22:56;6.97;;;3.07;;
38117;SDS011;23928;47.562;7.508;2022-07-04T09:25:22;4.60;;;2.80;;
38117;SDS011;23928;47.562;7.508;2022-07-04T09:27:55;6.10;;;3.10;;
38117;SDS011;23928;47.562;7.508;2022-07-04T09:30:22;5.00;;;2.73;;
38117;SDS011;23928;47.562;7.508;2022-07-04T09:32:50;5.80;;;2.83;;
38117;SDS011;23928;47.562;7.508;2022-07-04T09:35:20;5.10;;;2.83;;
38117;SDS011;23928;47.562;7.508;2022-07-04T09:37:50;5.60;;;3.43;;
38117;SDS011;23928;47.562;7.508;2022-07-04T09:42:53;6.27;;;3.33;;
38117;SDS011;23928;47.562;7.508;2022-07-04T09:45:23;5.87;;;3.63;;
38117;SDS011;23928;47.562;7.508;2022-07-04T09:47:49;6.03;;;2.80;;
38117;SDS011;23928;47.562;7.508;2022-07-04T09:50:22;5.80;;;2.87;;
38117;SDS011;23928;47.562;7.508;2022-07-04T09:57:56;4.80;;;2.73;;
38117;SDS011;23928;47.562;7.508;2022-07-04T10:02:54;4.40;;;2.37;;
38117;SDS011;23928;47.562;7.508;2022-07-04T10:05:25;5.43;;;2.20;;
38117;SDS011;23928;47.562;7.508;2022-07-04T10:07:55;5.43;;;2.87;;
38117;SDS011;23928;47.562;7.508;2022-07-04T10:10:33;6.33;;;2.40;;
38117;SDS011;23928;47.562;7.508;2022-07-04T10:13:07;4.70;;;2.20;;
38117;SDS011;23928;47.562;7.508;2022-07-04T10:15:36;1.80;;;1.67;;
38117;SDS011;23928;47.562;7.508;2022-07-04T10:18:04;2.63;;;2.00;;
38117;SDS011;23928;47.562;7.508;2022-07-04T10:20:31;2.53;;;1.80;;
38117;SDS011;23928;47.562;7.508;2022-07-04T10:22:56;2.43;;;1.77;;
38117;SDS011;23928;47.562;7.508;2022-07-04T10:25:23;4.10;;;2.30;;
38117;SDS011;23928;47.562;7.508;2022-07-04T10:27:48;2.80;;;1.70;;
38117;SDS011;23928;47.562;7.508;2022-07-04T10:30:17;3.77;;;2.07;;
38117;SDS011;23928;47.562;7.508;2022-07-04T10:32:47;4.60;;;1.97;;
38117;SDS011;23928;47.562;7.508;2022-07-04T10:35:14;2.97;;;1.63;;
38117;SDS011;23928;47.562;7.508;2022-07-04T10:38:00;3.87;;;1.67;;
38117;SDS011;23928;47.562;7.508;2022-07-04T10:40:47;3.07;;;1.80;;
38117;SDS011;23928;47.562;7.508;2022-07-04T10:48:32;2.70;;;1.73;;
38117;SDS011;23928;47.562;7.508;2022-07-04T10:51:02;3.07;;;1.87;;
38117;SDS011;23928;47.562;7.508;2022-07-04T10:53:29;2.83;;;1.67;;
38117;SDS011;23928;47.562;7.508;2022-07-04T10:58:40;4.10;;;1.80;;
38117;SDS011;23928;47.562;7.508;2022-07-04T11:01:11;3.27;;;2.07;;
38117;SDS011;23928;47.562;7.508;2022-07-04T11:03:47;4.23;;;1.83;;
38117;SDS011;23928;47.562;7.508;2022-07-04T11:14:45;2.87;;;1.50;;
38117;SDS011;23928;47.562;7.508;2022-07-04T11:17:26;2.13;;;1.77;;
38117;SDS011;23928;47.562;7.508;2022-07-04T11:20:02;2.87;;;1.70;;
38117;SDS011;23928;47.562;7.508;2022-07-04T11:22:29;2.13;;;1.90;;
38117;SDS011;23928;47.562;7.508;2022-07-04T11:24:54;1.87;;;1.67;;
38117;SDS011;23928;47.562;7.508;2022-07-04T11:27:21;3.13;;;2.03;;
38117;SDS011;23928;47.562;7.508;2022-07-04T11:29:51;3.17;;;1.73;;
38117;SDS011;23928;47.562;7.508;2022-07-04T11:32:20;3.17;;;1.90;;
38117;SDS011;23928;47.562;7.508;2022-07-04T11:34:54;3.47;;;1.87;;
38117;SDS011;23928;47.562;7.508;2022-07-04T11:37:20;3.27;;;1.60;;
38117;SDS011;23928;47.562;7.508;2022-07-04T11:39:49;3.07;;;1.73;;
38117;SDS011;23928;47.562;7.508;2022-07-04T11:42:38;6.30;;;1.77;;
38117;SDS011;23928;47.562;7.508;2022-07-04T11:45:23;1.57;;;1.43;;
38117;SDS011;23928;47.562;7.508;2022-07-04T11:47:49;3.33;;;1.80;;
38117;SDS011;23928;47.562;7.508;2022-07-04T11:50:15;2.40;;;1.40;;
38117;SDS011;23928;47.562;7.508;2022-07-04T11:52:44;3.00;;;1.80;;
38117;SDS011;23928;47.562;7.508;2022-07-04T11:55:13;3.53;;;2.00;;
38117;SDS011;23928;47.562;7.508;2022-07-04T11:57:41;3.27;;;1.70;;
38117;SDS011;23928;47.562;7.508;2022-07-04T12:00:17;2.03;;;1.57;;
38117;SDS011;23928;47.562;7.508;2022-07-04T12:02:45;2.97;;;1.50;;
38117;SDS011;23928;47.562;7.508;2022-07-04T12:05:12;3.03;;;1.90;;
38117;SDS011;23928;47.562;7.508;2022-07-04T12:07:40;3.30;;;1.93;;
38117;SDS011;23928;47.562;7.508;2022-07-04T12:10:14;2.10;;;1.70;;
38117;SDS011;23928;47.562;7.508;2022-07-04T12:15:20;2.77;;;1.70;;
38117;SDS011;23928;47.562;7.508;2022-07-04T12:17:51;1.80;;;1.67;;
38117;SDS011;23928;47.562;7.508;2022-07-04T12:20:19;2.90;;;1.70;;
38117;SDS011;23928;47.562;7.508;2022-07-04T12:22:51;2.13;;;1.90;;
38117;SDS011;23928;47.562;7.508;2022-07-04T12:25:33;2.73;;;1.50;;
38117;SDS011;23928;47.562;7.508;2022-07-04T12:28:07;2.90;;;1.70;;
38117;SDS011;23928;47.562;7.508;2022-07-04T12:30:35;1.67;;;1.57;;
38117;SDS011;23928;47.562;7.508;2022-07-04T12:33:03;2.60;;;1.70;;
38117;SDS011;23928;47.562;7.508;2022-07-04T12:38:09;2.70;;;1.50;;
38117;SDS011;23928;47.562;7.508;2022-07-04T12:43:48;1.50;;;1.40;;
38117;SDS011;23928;47.562;7.508;2022-07-04T12:46:32;2.50;;;1.97;;
38117;SDS011;23928;47.562;7.508;2022-07-04T12:48:58;4.33;;;1.60;;
38117;SDS011;23928;47.562;7.508;2022-07-04T12:51:32;4.20;;;2.00;;
38117;SDS011;23928;47.562;7.508;2022-07-04T12:54:02;2.00;;;1.60;;
38117;SDS011;23928;47.562;7.508;2022-07-04T12:56:33;2.53;;;1.53;;
38117;SDS011;23928;47.562;7.508;2022-07-04T12:59:02;5.23;;;1.83;;
38117;SDS011;23928;47.562;7.508;2022-07-04T13:01:30;4.77;;;1.67;;
38117;SDS011;23928;47.562;7.508;2022-07-04T13:03:56;1.77;;;1.67;;
38117;SDS011;23928;47.562;7.508;2022-07-04T13:06:22;1.97;;;1.57;;
38117;SDS011;23928;47.562;7.508;2022-07-04T13:08:48;3.03;;;1.60;;
38117;SDS011;23928;47.562;7.508;2022-07-04T13:11:14;2.87;;;1.70;;
38117;SDS011;23928;47.562;7.508;2022-07-04T13:13:58;2.10;;;1.57;;
38117;SDS011;23928;47.562;7.508;2022-07-04T13:16:24;2.23;;;1.70;;
38117;SDS011;23928;47.562;7.508;2022-07-04T13:18:49;3.07;;;1.40;;
38117;SDS011;23928;47.562;7.508;2022-07-04T13:21:15;4.83;;;1.90;;
38117;SDS011;23928;47.562;7.508;2022-07-04T13:23:41;6.43;;;2.03;;
38117;SDS011;23928;47.562;7.508;2022-07-04T13:26:07;4.03;;;1.60;;
38117;SDS011;23928;47.562;7.508;2022-07-04T13:28:32;1.80;;;1.60;;
38117;SDS011;23928;47.562;7.508;2022-07-04T13:30:58;1.90;;;1.63;;
38117;SDS011;23928;47.562;7.508;2022-07-04T13:33:24;2.90;;;1.70;;
38117;SDS011;23928;47.562;7.508;2022-07-04T13:35:49;3.13;;;1.87;;
38117;SDS011;23928;47.562;7.508;2022-07-04T13:38:15;6.50;;;1.60;;
38117;SDS011;23928;47.562;7.508;2022-07-04T13:40:44;3.00;;;1.50;;
38117;SDS011;23928;47.562;7.508;2022-07-04T13:43:10;3.70;;;1.73;;
38117;SDS011;23928;47.562;7.508;2022-07-04T13:45:37;3.77;;;1.80;;
38117;SDS011;23928;47.562;7.508;2022-07-04T13:48:04;4.03;;;1.93;;
38117;SDS011;23928;47.562;7.508;2022-07-04T13:50:31;2.70;;;1.80;;
38117;SDS011;23928;47.562;7.508;2022-07-04T13:52:57;3.67;;;1.60;;
38117;SDS011;23928;47.562;7.508;2022-07-04T13:55:23;5.60;;;2.10;;
38117;SDS011;23928;47.562;7.508;2022-07-04T13:57:49;2.10;;;1.33;;
38117;SDS011;23928;47.562;7.508;2022-07-04T14:00:15;2.60;;;1.67;;
38117;SDS011;23928;47.562;7.508;2022-07-04T14:02:41;3.00;;;1.60;;
38117;SDS011;23928;47.562;7.508;2022-07-04T14:05:08;3.30;;;1.67;;
38117;SDS011;23928;47.562;7.508;2022-07-04T14:07:34;3.10;;;1.57;;
38117;SDS011;23928;47.562;7.508;2022-07-04T14:09:59;1.87;;;1.50;;
38117;SDS011;23928;47.562;7.508;2022-07-04T14:12:25;3.50;;;1.50;;
38117;SDS011;23928;47.562;7.508;2022-07-04T14:14:51;1.50;;;1.40;;
38117;SDS011;23928;47.562;7.508;2022-07-04T14:17:17;8.73;;;2.00;;
38117;SDS011;23928;47.562;7.508;2022-07-04T14:19:42;2.50;;;1.47;;
38117;SDS011;23928;47.562;7.508;2022-07-04T14:22:08;3.90;;;1.77;;
38117;SDS011;23928;47.562;7.508;2022-07-04T14:24:33;1.77;;;1.50;;
38117;SDS011;23928;47.562;7.508;2022-07-04T14:26:59;2.73;;;1.93;;
38117;SDS011;23928;47.562;7.508;2022-07-04T14:29:24;1.60;;;1.50;;
38117;SDS011;23928;47.562;7.508;2022-07-04T14:31:50;3.93;;;1.70;;
38117;SDS011;23928;47.562;7.508;2022-07-04T14:34:16;4.63;;;1.77;;
38117;SDS011;23928;47.562;7.508;2022-07-04T14:36:43;3.73;;;1.80;;
38117;SDS011;23928;47.562;7.508;2022-07-04T14:39:08;3.07;;;1.60;;
38117;SDS011;23928;47.562;7.508;2022-07-04T14:41:34;1.70;;;1.60;;
38117;SDS011;23928;47.562;7.508;2022-07-04T14:44:00;6.53;;;1.90;;
38117;SDS011;23928;47.562;7.508;2022-07-04T14:46:27;2.53;;;1.70;;
38117;SDS011;23928;47.562;7.508;2022-07-04T14:48:53;2.93;;;1.60;;
38117;SDS011;23928;47.562;7.508;2022-07-04T14:51:20;3.40;;;1.80;;
38117;SDS011;23928;47.562;7.508;2022-07-04T14:53:46;2.03;;;1.77;;
38117;SDS011;23928;47.562;7.508;2022-07-04T14:56:11;2.00;;;1.50;;
38117;SDS011;23928;47.562;7.508;2022-07-04T14:58:37;2.07;;;1.87;;
38117;SDS011;23928;47.562;7.508;2022-07-04T15:01:02;2.27;;;1.70;;
38117;SDS011;23928;47.562;7.508;2022-07-04T15:03:28;3.40;;;1.70;;
38117;SDS011;23928;47.562;7.508;2022-07-04T15:05:54;2.23;;;1.70;;
38117;SDS011;23928;47.562;7.508;2022-07-04T15:08:19;1.53;;;1.43;;
38117;SDS011;23928;47.562;7.508;2022-07-04T15:10:45;3.27;;;1.63;;
38117;SDS011;23928;47.562;7.508;2022-07-04T15:13:10;2.00;;;1.80;;
38117;SDS011;23928;47.562;7.508;2022-07-04T15:15:38;1.70;;;1.60;;
38117;SDS011;23928;47.562;7.508;2022-07-04T15:18:03;2.97;;;1.60;;
38117;SDS011;23928;47.562;7.508;2022-07-04T15:20:29;4.10;;;1.50;;
38117;SDS011;23928;47.562;7.508;2022-07-04T15:23:13;2.47;;;1.67;;
38117;SDS011;23928;47.562;7.508;2022-07-04T15:25:58;2.93;;;1.40;;